Burns Municipal Airport
KBNO : now visible

Airfield :











YOU CAN JOIN US ON...

 
LOGIN :

Register | Disclaimer

   EN    FR    IT 

 









Legend :    VFR   Marginal VFR   IFR   Intensive IFR   Very Intensive IFR
Visi :
Ceiling :
>= 8 km
>= 3000ft
5 to 8 km
1000 to 3000 ft
1500m to 5 km
500 to 1000 ft
800 to 1500m
200 to 500 ft
< 800m
< 200 ft
Symbols :   Thunderstorms  Fog  Heavy snow  Heavy precipitations  Wind > 20 kt






- Airport Elevation : 4148 ft


KBNO - Burns Municipal

CURRENT METAR :
  • 060053Z AUTO 10008KT 10SM FEW050 08/03 A2958 RMK AO2 SLP020 T00780033

EXPIRED METARs :
  • 052353Z AUTO 10007KT 10SM SCT016 BKN039 OVC055 08/04 A2959 RMK AO2 LTG DSNT SE RAE15 SLP024 P0001 60008 T00780039 10083 20033 58005
  • 052314Z AUTO 13006KT 10SM -RA SCT026 BKN039 OVC047 07/04 A2960 RMK AO2 P0001 T00670039
  • 052253Z AUTO 16010KT 8SM -RA FEW020 BKN027 OVC048 05/02 A2961 RMK AO2 SLP034 P0002 T00500022

TAF KBNO
Valid from the 06 at 00:00 until the 07 at 00:00 UTC


052325Z 0600/0624 09012KT P6SM -RA SCT015 BKN035
FM060200 VRB05KT P6SM VCSH SCT040 BKN070
FM060600 VRB04KT P6SM SCT030
FM060900 VRB03KT 1SM BR BKN005
FM061400 VRB04KT P6SM SCT005 BKN040
FM061900 25008KT P6SM BKN050



MET'MAP, your aeronautical weather chart ! - Copyright ORBIFLY December 2007 - Disclaimer

ORBIFLY MET'MAP TEAM :

Programming & Development : Alexandra Zaïnal
Concept & original design : Baudouin d'Aumeries
Assistance for programming : Marc-Olivier Méhu
Technical & hardware support : Manuel Goepfert

Contact : metmap@orbifly.com




SOURCES & CREDITS :

   NOAA       Earth
Advisory